Time;durP1;ratioP1;P1;durP2;ratioP2;P2;SDS_P1;SDS_P2;PMS_P1;PMS_P2;Temp;Humidity;BMP_temperature;BMP_pressure;BME280_temperature;BME280_humidity;BME280_pressure;Samples;Min_cycle;Max_cycle;Signal;HPM_P1;HPM_P2
2022/01/02 00:01:12;;;;;;;10.18;3.72;;;;;;;;;;5008077;28;21099;-77
2022/01/02 00:03:39;;;;;;;10.35;3.60;;;;;;;;;;5030474;28;20044;-77
2022/01/02 00:06:06;;;;;;;12.32;3.40;;;;;;;;;;5006735;28;20048;-78
2022/01/02 00:08:40;;;;;;;7.60;3.83;;;;;;;;;;5018710;28;20040;-77
2022/01/02 00:11:06;;;;;;;7.65;4.22;;;;;;;;;;5022607;28;20029;-78
2022/01/02 00:13:35;;;;;;;10.10;3.83;;;;;;;;;;5012182;28;20045;-78
2022/01/02 00:16:06;;;;;;;8.27;3.65;;;;;;;;;;5038191;28;20115;-78
2022/01/02 00:18:36;;;;;;;8.23;3.38;;;;;;;;;;5041101;28;20064;-78
2022/01/02 00:21:07;;;;;;;9.80;3.88;;;;;;;;;;5034083;28;20072;-77
2022/01/02 00:23:42;;;;;;;7.15;3.75;;;;;;;;;;5035197;28;20724;-78
2022/01/02 00:26:15;;;;;;;7.90;3.67;;;;;;;;;;5044058;28;20025;-78
2022/01/02 00:28:42;;;;;;;7.15;3.90;;;;;;;;;;5045823;28;20025;-77
2022/01/02 00:31:08;;;;;;;8.35;3.65;;;;;;;;;;5039178;28;20142;-78
2022/01/02 00:33:34;;;;;;;8.85;3.65;;;;;;;;;;5035795;28;20383;-77
2022/01/02 00:36:04;;;;;;;8.75;3.70;;;;;;;;;;5038347;28;20475;-77
2022/01/02 00:38:30;;;;;;;8.48;3.60;;;;;;;;;;5035717;28;20030;-77
2022/01/02 00:40:57;;;;;;;10.23;3.65;;;;;;;;;;5057280;28;20030;-77
2022/01/02 00:43:41;;;;;;;8.70;3.65;;;;;;;;;;5043254;28;20029;-78
2022/01/02 00:46:09;;;;;;;7.80;3.60;;;;;;;;;;5031694;28;20037;-77
2022/01/02 00:48:39;;;;;;;7.45;4.00;;;;;;;;;;5041465;28;20029;-78
2022/01/02 00:51:14;;;;;;;6.65;3.40;;;;;;;;;;5028631;28;20054;-78
2022/01/02 00:53:43;;;;;;;8.80;3.65;;;;;;;;;;5034950;28;20029;-78
2022/01/02 00:56:10;;;;;;;8.02;3.58;;;;;;;;;;5025382;28;20029;-78
2022/01/02 00:58:49;;;;;;;7.45;3.85;;;;;;;;;;4998066;28;20052;-77
2022/01/02 01:01:17;;;;;;;11.43;4.03;;;;;;;;;;5025019;28;20046;-77
2022/01/02 01:03:42;;;;;;;10.60;3.90;;;;;;;;;;5018578;28;20100;-78
2022/01/02 01:06:10;;;;;;;13.15;4.10;;;;;;;;;;5010917;28;20034;-78
2022/01/02 01:08:38;;;;;;;9.85;3.90;;;;;;;;;;5014709;28;20034;-78
2022/01/02 01:11:08;;;;;;;11.15;3.92;;;;;;;;;;5013967;28;20029;-78
2022/01/02 01:13:33;;;;;;;9.85;4.03;;;;;;;;;;5012570;28;20021;-78
2022/01/02 01:15:59;;;;;;;8.18;3.65;;;;;;;;;;5024222;28;20553;-78
2022/01/02 01:18:25;;;;;;;8.77;3.75;;;;;;;;;;5007658;28;20049;-78
2022/01/02 01:20:51;;;;;;;12.15;4.05;;;;;;;;;;5019864;28;20038;-77
2022/01/02 01:23:17;;;;;;;8.05;3.47;;;;;;;;;;5001474;28;20232;-79
2022/01/02 01:25:48;;;;;;;6.70;3.60;;;;;;;;;;5025225;28;20495;-78
2022/01/02 01:28:15;;;;;;;6.93;3.60;;;;;;;;;;5028540;28;20030;-78
2022/01/02 01:30:41;;;;;;;7.38;3.67;;;;;;;;;;5029002;28;20034;-77
2022/01/02 01:33:07;;;;;;;6.82;3.60;;;;;;;;;;5003631;28;20916;-78
2022/01/02 01:35:34;;;;;;;8.38;3.63;;;;;;;;;;5023668;28;20037;-78
2022/01/02 01:38:00;;;;;;;6.45;3.78;;;;;;;;;;5024240;28;20029;-78
2022/01/02 01:40:27;;;;;;;7.72;3.90;;;;;;;;;;5008471;28;20075;-78
2022/01/02 01:42:58;;;;;;;6.30;3.95;;;;;;;;;;5009688;28;20037;-78
2022/01/02 01:47:53;;;;;;;7.75;3.80;;;;;;;;;;5016427;28;20041;-77
2022/01/02 01:50:20;;;;;;;6.93;3.70;;;;;;;;;;5036731;28;20041;-78
2022/01/02 01:52:46;;;;;;;7.65;3.85;;;;;;;;;;5069536;28;20626;-78
2022/01/02 01:55:11;;;;;;;10.55;3.47;;;;;;;;;;5062958;28;20120;-78
2022/01/02 01:57:40;;;;;;;8.75;4.15;;;;;;;;;;5053123;28;20052;-78
2022/01/02 02:00:13;;;;;;;8.02;3.45;;;;;;;;;;5052377;28;20044;-78
2022/01/02 02:02:39;;;;;;;10.68;4.18;;;;;;;;;;5052697;28;20044;-79
2022/01/02 02:05:05;;;;;;;7.32;3.85;;;;;;;;;;5035058;28;20617;-77
2022/01/02 02:07:38;;;;;;;8.85;3.85;;;;;;;;;;5042182;28;20029;-78
2022/01/02 02:10:13;;;;;;;6.72;3.90;;;;;;;;;;5043138;28;20094;-77
2022/01/02 02:12:41;;;;;;;7.13;3.47;;;;;;;;;;5039840;28;20574;-78
2022/01/02 02:15:09;;;;;;;11.30;4.15;;;;;;;;;;5040788;28;20084;-77
2022/01/02 02:17:35;;;;;;;9.00;3.70;;;;;;;;;;5049763;28;20044;-78
2022/01/02 02:20:18;;;;;;;11.15;3.67;;;;;;;;;;5038485;28;20037;-78
2022/01/02 02:22:47;;;;;;;7.05;3.22;;;;;;;;;;5045886;28;20040;-78
2022/01/02 02:25:19;;;;;;;7.95;3.50;;;;;;;;;;5044205;28;20041;-78
2022/01/02 02:28:03;;;;;;;6.38;2.67;;;;;;;;;;5041383;28;20048;-78
2022/01/02 02:30:32;;;;;;;8.73;3.80;;;;;;;;;;5047594;28;20045;-78
2022/01/02 02:32:59;;;;;;;6.18;3.17;;;;;;;;;;5034107;28;20041;-78
2022/01/02 02:35:26;;;;;;;7.85;3.38;;;;;;;;;;5047591;28;20063;-78
2022/01/02 02:37:52;;;;;;;7.93;3.80;;;;;;;;;;5032801;28;20029;-78
2022/01/02 02:40:20;;;;;;;7.18;3.13;;;;;;;;;;5042612;28;20040;-77
2022/01/02 02:42:51;;;;;;;6.47;3.15;;;;;;;;;;5055688;28;20041;-78
2022/01/02 02:51:10;;;;;;;8.45;3.08;;;;;;;;;;5026456;28;20128;-78
2022/01/02 02:53:39;;;;;;;8.70;3.60;;;;;;;;;;5027009;28;20033;-78
2022/01/02 02:56:23;;;;;;;7.07;3.92;;;;;;;;;;5033035;28;20040;-78
2022/01/02 02:58:50;;;;;;;8.40;4.07;;;;;;;;;;5025101;28;20021;-78
2022/01/02 03:01:18;;;;;;;7.03;3.75;;;;;;;;;;5032898;28;20076;-77
2022/01/02 03:03:44;;;;;;;8.55;3.92;;;;;;;;;;5032741;28;20041;-77
2022/01/02 03:06:11;;;;;;;7.75;4.00;;;;;;;;;;5033466;28;20041;-77
2022/01/02 03:08:37;;;;;;;8.32;4.10;;;;;;;;;;5041465;28;20025;-78
2022/01/02 03:11:05;;;;;;;6.43;4.00;;;;;;;;;;5045919;28;20033;-78
2022/01/02 03:13:30;;;;;;;8.40;4.03;;;;;;;;;;5028436;28;20021;-78
2022/01/02 03:15:55;;;;;;;9.02;4.68;;;;;;;;;;5041083;28;20152;-78
2022/01/02 03:18:21;;;;;;;6.78;3.63;;;;;;;;;;5035987;28;20518;-78
2022/01/02 03:20:46;;;;;;;7.60;3.92;;;;;;;;;;5035713;28;20056;-77
2022/01/02 03:23:11;;;;;;;7.80;4.35;;;;;;;;;;5019075;28;20031;-78
2022/01/02 03:25:37;;;;;;;7.55;4.10;;;;;;;;;;5038340;28;20028;-78
2022/01/02 03:28:02;;;;;;;8.15;3.90;;;;;;;;;;5013721;28;20033;-78
2022/01/02 03:30:28;;;;;;;9.93;4.20;;;;;;;;;;5034594;28;20029;-78
2022/01/02 03:32:53;;;;;;;7.95;3.95;;;;;;;;;;5037595;28;20052;-78
2022/01/02 03:35:18;;;;;;;8.30;3.42;;;;;;;;;;5029166;28;20029;-78
2022/01/02 03:37:44;;;;;;;9.00;3.90;;;;;;;;;;5023954;28;20033;-78
2022/01/02 03:40:10;;;;;;;8.57;3.92;;;;;;;;;;4999648;28;20121;-78
2022/01/02 03:42:36;;;;;;;6.43;3.90;;;;;;;;;;5017962;28;20612;-78
2022/01/02 03:45:03;;;;;;;7.47;4.35;;;;;;;;;;5018885;28;20112;-78
2022/01/02 03:47:29;;;;;;;8.73;4.50;;;;;;;;;;5017881;28;20108;-78
2022/01/02 03:49:54;;;;;;;6.90;4.55;;;;;;;;;;5017204;28;20044;-78
2022/01/02 03:52:19;;;;;;;8.63;4.40;;;;;;;;;;5061257;28;20033;-78
2022/01/02 03:54:45;;;;;;;7.93;4.25;;;;;;;;;;5051218;28;20637;-78
2022/01/02 03:57:10;;;;;;;6.00;3.92;;;;;;;;;;5047962;28;20090;-78
2022/01/02 03:59:36;;;;;;;10.45;4.30;;;;;;;;;;5052852;28;20044;-78
2022/01/02 04:02:02;;;;;;;8.15;3.60;;;;;;;;;;5044532;28;20120;-78
2022/01/02 04:04:28;;;;;;;4.60;2.70;;;;;;;;;;5044103;28;20055;-78
2022/01/02 04:06:54;;;;;;;9.27;3.90;;;;;;;;;;5042461;28;20025;-78
2022/01/02 04:09:19;;;;;;;10.45;4.57;;;;;;;;;;5051885;28;20411;-78
2022/01/02 04:11:44;;;;;;;7.20;3.97;;;;;;;;;;5049679;28;20122;-78
2022/01/02 04:14:10;;;;;;;8.82;4.10;;;;;;;;;;5042687;28;20056;-77
2022/01/02 04:16:35;;;;;;;9.45;4.38;;;;;;;;;;5043520;28;20737;-78
2022/01/02 04:19:00;;;;;;;5.53;2.80;;;;;;;;;;5047412;28;20108;-78
2022/01/02 04:21:26;;;;;;;6.43;3.45;;;;;;;;;;5042918;28;20044;-78
2022/01/02 04:23:51;;;;;;;7.30;3.00;;;;;;;;;;5048898;28;20066;-78
2022/01/02 04:26:16;;;;;;;7.53;3.88;;;;;;;;;;5054858;28;20128;-77
2022/01/02 04:28:42;;;;;;;10.82;4.40;;;;;;;;;;5042869;28;20108;-78
2022/01/02 04:31:09;;;;;;;9.05;4.15;;;;;;;;;;5076346;28;20025;-78
2022/01/02 04:33:35;;;;;;;6.32;3.90;;;;;;;;;;5045947;28;20036;-78
2022/01/02 04:36:01;;;;;;;8.52;3.83;;;;;;;;;;5045947;28;20037;-78
2022/01/02 04:38:26;;;;;;;10.82;4.40;;;;;;;;;;5045380;28;20126;-78
2022/01/02 04:40:51;;;;;;;8.10;4.10;;;;;;;;;;5042861;28;20033;-78
2022/01/02 04:43:17;;;;;;;7.93;4.03;;;;;;;;;;5043130;28;20541;-78
2022/01/02 04:45:42;;;;;;;9.05;4.30;;;;;;;;;;5041168;28;20039;-78
2022/01/02 04:48:07;;;;;;;6.53;4.00;;;;;;;;;;5035270;28;20045;-78
2022/01/02 04:50:33;;;;;;;8.32;3.97;;;;;;;;;;5038958;28;20526;-77
2022/01/02 04:52:58;;;;;;;5.85;3.13;;;;;;;;;;5037715;28;20056;-78
2022/01/02 04:55:24;;;;;;;6.55;3.88;;;;;;;;;;5039308;28;20099;-78
2022/01/02 04:57:49;;;;;;;7.10;3.85;;;;;;;;;;5039250;28;20140;-78
2022/01/02 05:00:15;;;;;;;6.15;3.50;;;;;;;;;;5042328;28;20552;-78
2022/01/02 05:02:40;;;;;;;8.05;4.25;;;;;;;;;;5050641;28;20045;-78
2022/01/02 05:05:06;;;;;;;8.05;4.60;;;;;;;;;;5049931;28;20037;-78
2022/01/02 05:07:31;;;;;;;8.32;3.97;;;;;;;;;;5048881;28;20061;-78
2022/01/02 05:09:56;;;;;;;6.65;3.58;;;;;;;;;;5041860;28;20769;-78
2022/01/02 05:12:22;;;;;;;5.57;3.70;;;;;;;;;;5043802;28;20114;-78
2022/01/02 05:14:47;;;;;;;8.38;4.13;;;;;;;;;;5037750;28;20037;-78
2022/01/02 05:17:13;;;;;;;9.20;4.15;;;;;;;;;;5040653;28;20406;-78
2022/01/02 05:19:38;;;;;;;8.55;3.88;;;;;;;;;;5044088;28;20039;-78
2022/01/02 05:22:04;;;;;;;6.07;3.80;;;;;;;;;;5042038;28;20037;-78
2022/01/02 05:24:29;;;;;;;6.45;3.58;;;;;;;;;;5042133;28;20037;-78
2022/01/02 05:26:55;;;;;;;7.13;3.67;;;;;;;;;;5050668;28;20025;-78
2022/01/02 05:29:21;;;;;;;7.30;3.63;;;;;;;;;;5049475;28;20036;-78
2022/01/02 05:31:47;;;;;;;6.35;3.53;;;;;;;;;;5037725;28;20110;-78
2022/01/02 05:34:12;;;;;;;5.22;3.20;;;;;;;;;;5042974;28;20088;-78
2022/01/02 05:36:37;;;;;;;4.25;2.95;;;;;;;;;;5041401;28;20110;-78
2022/01/02 05:39:03;;;;;;;5.00;3.30;;;;;;;;;;5045149;28;20202;-78
2022/01/02 05:41:30;;;;;;;5.45;3.53;;;;;;;;;;5034919;28;20052;-78
2022/01/02 05:43:56;;;;;;;6.97;3.10;;;;;;;;;;5046380;28;20037;-78
2022/01/02 05:46:22;;;;;;;4.63;2.88;;;;;;;;;;5033862;28;20167;-77
2022/01/02 05:48:48;;;;;;;4.55;2.75;;;;;;;;;;5038564;28;20040;-78
2022/01/02 05:51:13;;;;;;;4.75;2.28;;;;;;;;;;5058840;28;20413;-78
2022/01/02 05:53:39;;;;;;;9.20;3.40;;;;;;;;;;5044145;28;20037;-78
2022/01/02 05:56:05;;;;;;;6.88;3.05;;;;;;;;;;5042091;28;20033;-78
2022/01/02 05:58:30;;;;;;;6.97;3.25;;;;;;;;;;5069559;28;20028;-78
2022/01/02 06:00:55;;;;;;;3.53;2.55;;;;;;;;;;5046954;28;20033;-78
2022/01/02 06:03:21;;;;;;;6.03;3.20;;;;;;;;;;5063099;28;20052;-78
2022/01/02 06:05:46;;;;;;;5.30;2.40;;;;;;;;;;5042223;28;20094;-78
2022/01/02 06:08:12;;;;;;;5.30;2.92;;;;;;;;;;5061281;28;20459;-78
2022/01/02 06:10:37;;;;;;;5.45;2.85;;;;;;;;;;5042110;28;20520;-78
2022/01/02 06:13:02;;;;;;;6.50;3.33;;;;;;;;;;5036965;28;20060;-78
2022/01/02 06:15:28;;;;;;;4.47;2.53;;;;;;;;;;5046440;28;20056;-78
2022/01/02 06:17:53;;;;;;;3.53;1.98;;;;;;;;;;5036044;28;20041;-77
2022/01/02 06:20:18;;;;;;;4.68;2.65;;;;;;;;;;5023300;28;20056;-78
2022/01/02 06:22:44;;;;;;;5.15;2.70;;;;;;;;;;5059948;28;20032;-78
2022/01/02 06:25:09;;;;;;;10.95;6.35;;;;;;;;;;5056829;28;20043;-78
2022/01/02 06:27:35;;;;;;;5.40;3.00;;;;;;;;;;5036923;28;20249;-78
2022/01/02 06:30:00;;;;;;;6.00;2.78;;;;;;;;;;5058543;28;20056;-78
2022/01/02 06:32:26;;;;;;;5.05;2.50;;;;;;;;;;5057780;28;20065;-78
2022/01/02 06:34:51;;;;;;;7.45;2.80;;;;;;;;;;5031032;28;20025;-78
2022/01/02 06:37:17;;;;;;;6.05;2.78;;;;;;;;;;5051035;28;20079;-78
2022/01/02 06:39:42;;;;;;;4.55;2.45;;;;;;;;;;5054414;28;20041;-77
2022/01/02 06:42:07;;;;;;;5.90;3.15;;;;;;;;;;5057837;28;20044;-78
2022/01/02 06:44:33;;;;;;;5.13;3.05;;;;;;;;;;5058217;28;20040;-76
2022/01/02 06:46:58;;;;;;;5.15;3.22;;;;;;;;;;5058293;28;20060;-76
2022/01/02 06:49:23;;;;;;;8.02;3.80;;;;;;;;;;5041303;28;20037;-76
2022/01/02 06:51:49;;;;;;;5.43;3.47;;;;;;;;;;5037067;28;20057;-76
2022/01/02 06:54:14;;;;;;;7.57;2.97;;;;;;;;;;5050837;28;20055;-77
2022/01/02 06:56:39;;;;;;;5.28;3.17;;;;;;;;;;5044274;28;20106;-76
2022/01/02 06:59:05;;;;;;;7.65;3.15;;;;;;;;;;5054965;28;20481;-77
2022/01/02 07:01:30;;;;;;;4.72;3.20;;;;;;;;;;5035115;28;20059;-77
2022/01/02 07:03:56;;;;;;;9.05;3.50;;;;;;;;;;5038903;28;20566;-76
2022/01/02 07:06:21;;;;;;;5.03;2.78;;;;;;;;;;5039523;28;20421;-76
2022/01/02 07:08:46;;;;;;;5.57;3.22;;;;;;;;;;5056076;28;20520;-76
2022/01/02 07:11:11;;;;;;;5.53;2.90;;;;;;;;;;5065932;28;20056;-77
2022/01/02 07:13:38;;;;;;;7.75;3.80;;;;;;;;;;5047688;28;20462;-76
2022/01/02 07:16:04;;;;;;;8.27;3.55;;;;;;;;;;5037849;28;20041;-76
2022/01/02 07:18:29;;;;;;;5.40;3.30;;;;;;;;;;5046642;28;20118;-76
2022/01/02 07:20:54;;;;;;;8.13;3.90;;;;;;;;;;5038427;28;20047;-76
2022/01/02 07:23:20;;;;;;;7.63;3.95;;;;;;;;;;5040873;28;20041;-77
2022/01/02 07:25:45;;;;;;;5.57;3.40;;;;;;;;;;5039449;28;20028;-76
2022/01/02 07:28:11;;;;;;;7.82;3.53;;;;;;;;;;5038707;28;20116;-77
2022/01/02 07:30:36;;;;;;;10.30;4.00;;;;;;;;;;5039066;28;20044;-76
2022/01/02 07:33:02;;;;;;;7.43;3.70;;;;;;;;;;5040306;28;20510;-76
2022/01/02 07:35:31;;;;;;;5.43;3.70;;;;;;;;;;5045528;28;20036;-76
2022/01/02 07:37:57;;;;;;;6.97;4.00;;;;;;;;;;5065137;28;20025;-77
2022/01/02 07:40:26;;;;;;;9.07;4.22;;;;;;;;;;5056048;28;20444;-77
2022/01/02 07:42:52;;;;;;;7.55;4.32;;;;;;;;;;5051105;28;20037;-76
2022/01/02 07:45:17;;;;;;;7.15;4.13;;;;;;;;;;5055366;28;20048;-76
2022/01/02 07:47:43;;;;;;;6.25;3.85;;;;;;;;;;5047579;28;20051;-76
2022/01/02 07:50:09;;;;;;;8.95;4.68;;;;;;;;;;5044099;28;20052;-76
2022/01/02 07:52:34;;;;;;;9.30;4.93;;;;;;;;;;5044331;28;20395;-76
2022/01/02 07:54:59;;;;;;;10.30;5.50;;;;;;;;;;5038752;28;20118;-76
2022/01/02 07:57:25;;;;;;;8.75;4.53;;;;;;;;;;5038967;28;20134;-76
2022/01/02 07:59:50;;;;;;;9.13;4.57;;;;;;;;;;5038797;28;20044;-76
2022/01/02 08:02:15;;;;;;;12.10;4.97;;;;;;;;;;5039833;28;20072;-76
2022/01/02 08:04:41;;;;;;;11.20;5.28;;;;;;;;;;5034504;28;20108;-77
2022/01/02 08:07:06;;;;;;;9.40;4.80;;;;;;;;;;5044132;28;20048;-76
2022/01/02 08:09:31;;;;;;;10.13;5.25;;;;;;;;;;5038831;28;20067;-76
2022/01/02 08:11:57;;;;;;;8.65;4.90;;;;;;;;;;5039343;28;20045;-76
2022/01/02 08:14:22;;;;;;;8.63;4.95;;;;;;;;;;5038561;28;20033;-76
2022/01/02 08:16:48;;;;;;;8.82;4.95;;;;;;;;;;5040638;28;20029;-76
2022/01/02 08:19:13;;;;;;;10.60;5.22;;;;;;;;;;5050300;28;20469;-76
2022/01/02 08:21:39;;;;;;;7.85;4.65;;;;;;;;;;5041042;28;20090;-77
2022/01/02 08:24:05;;;;;;;12.80;4.75;;;;;;;;;;5030857;28;20103;-75
2022/01/02 08:26:30;;;;;;;9.88;5.20;;;;;;;;;;5040568;28;20044;-76
2022/01/02 08:29:00;;;;;;;9.88;4.60;;;;;;;;;;5053390;28;20031;-76
2022/01/02 08:31:25;;;;;;;11.07;5.28;;;;;;;;;;5075876;28;20029;-76
2022/01/02 08:33:51;;;;;;;8.55;4.72;;;;;;;;;;5049007;28;20101;-76
2022/01/02 08:36:17;;;;;;;12.35;5.65;;;;;;;;;;5048608;28;20631;-77
2022/01/02 08:38:42;;;;;;;10.05;5.20;;;;;;;;;;5039130;28;20045;-78
2022/01/02 08:41:07;;;;;;;9.25;5.15;;;;;;;;;;5050319;28;20059;-77
2022/01/02 08:43:34;;;;;;;9.68;5.63;;;;;;;;;;5049202;28;20119;-76
2022/01/02 08:46:00;;;;;;;13.18;5.72;;;;;;;;;;5037378;28;21051;-75
2022/01/02 08:48:25;;;;;;;9.88;5.63;;;;;;;;;;5039032;28;20029;-75
2022/01/02 08:50:51;;;;;;;8.80;4.85;;;;;;;;;;5055274;28;20066;-75
2022/01/02 08:53:17;;;;;;;13.25;6.43;;;;;;;;;;5062687;28;20041;-75
2022/01/02 08:55:42;;;;;;;10.07;5.28;;;;;;;;;;5060276;28;20029;-75
2022/01/02 08:58:08;;;;;;;7.50;4.90;;;;;;;;;;5060896;28;20046;-75
2022/01/02 09:00:34;;;;;;;10.55;5.20;;;;;;;;;;5060944;28;20540;-75
2022/01/02 09:03:00;;;;;;;9.15;5.53;;;;;;;;;;5049133;28;20592;-75
2022/01/02 09:05:26;;;;;;;9.45;5.30;;;;;;;;;;5041285;28;20052;-75
2022/01/02 09:07:52;;;;;;;8.70;5.50;;;;;;;;;;5048427;28;20099;-75
2022/01/02 09:10:18;;;;;;;11.75;5.13;;;;;;;;;;5050916;28;20175;-75
2022/01/02 09:12:44;;;;;;;9.77;5.53;;;;;;;;;;5043079;28;20537;-75
2022/01/02 09:15:10;;;;;;;19.50;6.95;;;;;;;;;;5020379;28;20030;-74
2022/01/02 09:17:35;;;;;;;18.00;6.88;;;;;;;;;;5035132;28;20503;-74
2022/01/02 09:20:00;;;;;;;12.73;5.57;;;;;;;;;;5033371;28;20048;-75
2022/01/02 09:22:26;;;;;;;8.65;4.75;;;;;;;;;;5033943;28;20490;-75
2022/01/02 09:24:53;;;;;;;11.65;6.00;;;;;;;;;;5015468;28;20029;-75
2022/01/02 09:27:18;;;;;;;10.95;6.15;;;;;;;;;;5033273;28;20030;-75
2022/01/02 09:29:43;;;;;;;19.00;7.25;;;;;;;;;;5033621;28;20056;-75
2022/01/02 09:32:09;;;;;;;16.02;6.93;;;;;;;;;;5031750;28;20403;-75
2022/01/02 09:34:34;;;;;;;10.77;5.22;;;;;;;;;;5032202;28;20052;-75
2022/01/02 09:37:01;;;;;;;11.73;5.85;;;;;;;;;;5035702;28;20081;-75
2022/01/02 09:39:27;;;;;;;16.90;7.80;;;;;;;;;;5056945;28;20102;-74
2022/01/02 09:41:53;;;;;;;12.73;6.15;;;;;;;;;;5059103;28;20032;-75
2022/01/02 09:44:19;;;;;;;9.98;5.50;;;;;;;;;;5036109;28;20033;-75
2022/01/02 09:46:44;;;;;;;9.82;5.68;;;;;;;;;;5050974;28;20649;-75
2022/01/02 09:49:10;;;;;;;11.65;5.45;;;;;;;;;;5047346;28;20061;-76
2022/01/02 09:51:35;;;;;;;9.88;5.40;;;;;;;;;;5010347;28;20045;-75
2022/01/02 09:54:01;;;;;;;10.95;5.35;;;;;;;;;;5021772;28;20645;-75
2022/01/02 09:56:26;;;;;;;8.43;5.20;;;;;;;;;;5022054;28;20029;-75
2022/01/02 09:58:52;;;;;;;8.95;4.90;;;;;;;;;;5013437;28;20955;-75
2022/01/02 10:01:18;;;;;;;10.70;5.15;;;;;;;;;;5008155;28;20044;-75
2022/01/02 10:03:46;;;;;;;13.60;5.30;;;;;;;;;;5034841;28;20695;-74
2022/01/02 10:06:13;;;;;;;10.48;5.55;;;;;;;;;;5040473;28;20041;-75
2022/01/02 10:08:38;;;;;;;11.77;5.57;;;;;;;;;;5038625;28;20545;-75
2022/01/02 10:11:19;;;;;;;11.15;5.15;;;;;;;;;;5040988;28;20025;-76
2022/01/02 10:13:53;;;;;;;10.48;5.32;;;;;;;;;;5041101;28;20025;-75
2022/01/02 10:16:20;;;;;;;8.52;4.80;;;;;;;;;;5042080;28;20033;-75
2022/01/02 10:18:46;;;;;;;12.00;5.20;;;;;;;;;;5038269;28;20144;-75
2022/01/02 10:21:26;;;;;;;9.55;4.90;;;;;;;;;;5035601;28;20084;-75
2022/01/02 10:24:12;;;;;;;9.18;4.97;;;;;;;;;;5043655;28;20029;-76
2022/01/02 10:26:37;;;;;;;10.05;4.75;;;;;;;;;;5048103;28;20033;-76
2022/01/02 10:29:11;;;;;;;11.55;4.93;;;;;;;;;;5044098;28;20035;-75
2022/01/02 10:31:36;;;;;;;;;;;;;;;;;;5042050;28;20461;-75
2022/01/02 10:34:01;;;;;;;12.93;5.13;;;;;;;;;;5037239;28;20019;-76
2022/01/02 10:36:31;;;;;;;12.85;5.47;;;;;;;;;;5035369;28;20284;-76
2022/01/02 10:39:09;;;;;;;10.88;5.40;;;;;;;;;;5041568;28;20051;-75
2022/01/02 10:41:37;;;;;;;10.05;5.32;;;;;;;;;;5040550;28;20041;-75
2022/01/02 10:44:30;;;;;;;13.40;5.10;;;;;;;;;;5035882;28;20127;-75
2022/01/02 10:47:24;;;;;;;11.77;6.10;;;;;;;;;;5035659;28;20458;-75
2022/01/02 10:50:03;;;;;;;11.15;5.82;;;;;;;;;;5048694;28;20048;-75
2022/01/02 10:52:40;;;;;;;11.05;5.38;;;;;;;;;;5054510;28;20041;-75
2022/01/02 10:55:22;;;;;;;10.98;5.07;;;;;;;;;;5060556;28;20044;-75
2022/01/02 10:57:50;;;;;;;9.18;4.55;;;;;;;;;;5058861;28;20051;-75
2022/01/02 11:00:21;;;;;;;10.80;5.20;;;;;;;;;;5044090;28;20654;-76
2022/01/02 11:02:47;;;;;;;11.23;5.35;;;;;;;;;;5042945;28;20045;-75
2022/01/02 11:05:15;;;;;;;10.38;5.03;;;;;;;;;;5046511;28;20410;-75
2022/01/02 11:07:47;;;;;;;10.40;4.60;;;;;;;;;;5039787;28;20112;-75
2022/01/02 11:10:15;;;;;;;12.32;6.10;;;;;;;;;;5063718;28;20043;-75
2022/01/02 11:12:42;;;;;;;9.30;5.10;;;;;;;;;;5064069;28;20036;-75
2022/01/02 11:15:10;;;;;;;9.50;4.82;;;;;;;;;;5063981;28;20130;-77
2022/01/02 11:17:36;;;;;;;10.05;4.55;;;;;;;;;;5054695;28;20047;-77
2022/01/02 11:20:08;;;;;;;11.65;5.32;;;;;;;;;;5055345;28;20025;-77
2022/01/02 11:22:38;;;;;;;9.38;4.47;;;;;;;;;;5055691;28;20017;-77
2022/01/02 11:25:11;;;;;;;9.35;5.70;;;;;;;;;;5051640;28;20533;-77
2022/01/02 11:27:43;;;;;;;13.05;5.35;;;;;;;;;;5052816;28;20036;-77
2022/01/02 11:30:35;;;;;;;12.88;5.63;;;;;;;;;;5055596;28;20024;-77
2022/01/02 11:33:05;;;;;;;10.35;4.57;;;;;;;;;;5064962;28;20546;-77
2022/01/02 11:35:31;;;;;;;11.50;5.00;;;;;;;;;;5043071;28;20498;-77
2022/01/02 11:38:01;;;;;;;10.93;4.85;;;;;;;;;;5036136;28;20083;-77
2022/01/02 11:40:42;;;;;;;9.63;4.45;;;;;;;;;;5069262;28;20127;-77
2022/01/02 11:43:07;;;;;;;11.27;4.97;;;;;;;;;;5047785;28;20045;-77
2022/01/02 11:45:35;;;;;;;11.88;5.28;;;;;;;;;;5061763;28;20039;-77
2022/01/02 11:48:24;;;;;;;12.23;4.70;;;;;;;;;;5050423;28;20036;-77
2022/01/02 11:50:49;;;;;;;10.40;5.13;;;;;;;;;;5033796;28;20046;-77
2022/01/02 11:53:25;;;;;;;9.48;4.88;;;;;;;;;;5032565;28;20051;-78
2022/01/02 11:55:52;;;;;;;12.73;5.03;;;;;;;;;;5038633;28;20031;-78
2022/01/02 11:58:44;;;;;;;10.70;4.90;;;;;;;;;;5015197;28;20531;-77
2022/01/02 12:01:10;;;;;;;6.38;4.13;;;;;;;;;;5018624;28;20152;-77
2022/01/02 12:03:38;;;;;;;8.90;4.88;;;;;;;;;;5029147;28;20578;-78
2022/01/02 12:06:24;;;;;;;7.45;4.35;;;;;;;;;;5042762;28;20029;-77
2022/01/02 12:08:52;;;;;;;8.82;4.35;;;;;;;;;;5023263;28;20098;-78
2022/01/02 12:11:32;;;;;;;6.30;4.15;;;;;;;;;;5043776;28;20047;-78
2022/01/02 12:14:06;;;;;;;7.32;4.32;;;;;;;;;;5032250;28;20084;-77
2022/01/02 12:16:37;;;;;;;10.73;4.45;;;;;;;;;;5044703;28;20098;-77
2022/01/02 12:19:04;;;;;;;10.18;5.07;;;;;;;;;;5034666;28;20033;-77
2022/01/02 12:21:31;;;;;;;10.10;4.00;;;;;;;;;;5043943;28;20395;-78
2022/01/02 12:23:58;;;;;;;10.68;4.43;;;;;;;;;;5027344;28;20848;-77
2022/01/02 12:26:31;;;;;;;6.70;4.10;;;;;;;;;;5012619;28;20092;-77
2022/01/02 12:29:05;;;;;;;9.98;4.20;;;;;;;;;;5023442;28;20048;-77
2022/01/02 12:31:33;;;;;;;8.30;4.75;;;;;;;;;;5034401;28;20494;-77
2022/01/02 12:34:04;;;;;;;6.55;3.67;;;;;;;;;;5038538;28;20045;-78
2022/01/02 12:36:30;;;;;;;8.35;3.63;;;;;;;;;;5040453;28;20426;-77
2022/01/02 12:39:02;;;;;;;6.95;4.03;;;;;;;;;;5045416;28;20026;-77
2022/01/02 12:41:30;;;;;;;10.27;4.38;;;;;;;;;;5041310;28;20038;-77
2022/01/02 12:44:08;;;;;;;12.95;4.32;;;;;;;;;;5031490;28;20074;-77
2022/01/02 12:46:43;;;;;;;7.18;4.32;;;;;;;;;;5042442;28;20509;-77
2022/01/02 12:49:31;;;;;;;10.52;3.78;;;;;;;;;;5032310;28;20088;-77
2022/01/02 12:52:03;;;;;;;10.52;3.75;;;;;;;;;;5039403;28;20127;-77
2022/01/02 12:54:31;;;;;;;7.03;3.58;;;;;;;;;;5040430;28;20041;-77
2022/01/02 12:57:11;;;;;;;8.77;4.18;;;;;;;;;;5045711;28;20405;-78
2022/01/02 12:59:38;;;;;;;6.63;3.40;;;;;;;;;;5043404;28;20056;-77
2022/01/02 13:02:05;;;;;;;7.13;4.03;;;;;;;;;;5031026;28;20112;-77
2022/01/02 13:04:31;;;;;;;11.40;4.10;;;;;;;;;;5028419;28;20021;-77
2022/01/02 13:07:12;;;;;;;6.97;3.47;;;;;;;;;;5044680;28;20041;-78
2022/01/02 13:09:40;;;;;;;6.30;3.55;;;;;;;;;;5035642;28;20042;-77
2022/01/02 13:12:28;;;;;;;9.05;3.88;;;;;;;;;;5044918;28;21139;-77
2022/01/02 13:15:05;;;;;;;14.07;4.25;;;;;;;;;;5045069;28;20044;-77
2022/01/02 13:17:32;;;;;;;9.23;3.78;;;;;;;;;;5044715;28;20119;-78
2022/01/02 13:20:00;;;;;;;8.07;3.88;;;;;;;;;;5039908;28;20429;-77
2022/01/02 13:22:30;;;;;;;9.27;4.82;;;;;;;;;;5044371;28;20035;-78
2022/01/02 13:24:56;;;;;;;11.05;4.47;;;;;;;;;;5048931;28;20040;-78
2022/01/02 13:27:23;;;;;;;10.85;4.63;;;;;;;;;;5048262;28;20037;-78
2022/01/02 13:29:57;;;;;;;9.27;4.45;;;;;;;;;;5048883;28;20029;-78
2022/01/02 13:32:23;;;;;;;8.38;4.10;;;;;;;;;;5048230;28;20037;-77
2022/01/02 13:35:09;;;;;;;8.02;4.22;;;;;;;;;;5047697;28;20122;-77
2022/01/02 13:37:43;;;;;;;11.07;4.60;;;;;;;;;;5044838;28;20052;-79
2022/01/02 13:40:18;;;;;;;19.77;5.30;;;;;;;;;;5048388;28;20558;-77
2022/01/02 13:42:45;;;;;;;12.07;5.25;;;;;;;;;;5048089;28;20041;-78
2022/01/02 13:45:16;;;;;;;9.77;4.40;;;;;;;;;;5046834;28;20087;-77
2022/01/02 13:47:44;;;;;;;12.68;4.68;;;;;;;;;;5044985;28;20041;-78
2022/01/02 13:50:28;;;;;;;11.40;4.82;;;;;;;;;;5046776;28;20067;-77
2022/01/02 13:53:00;;;;;;;7.10;4.10;;;;;;;;;;5042431;28;20033;-77
2022/01/02 13:55:29;;;;;;;10.40;4.55;;;;;;;;;;5042999;28;20055;-77
2022/01/02 13:57:55;;;;;;;11.65;4.50;;;;;;;;;;5040542;28;20546;-77
2022/01/02 14:00:22;;;;;;;10.98;4.30;;;;;;;;;;5045378;28;20037;-79
2022/01/02 14:02:52;;;;;;;8.30;3.97;;;;;;;;;;5036345;28;20053;-78
2022/01/02 14:05:22;;;;;;;10.93;4.07;;;;;;;;;;5040335;28;20041;-78
2022/01/02 14:07:48;;;;;;;11.32;4.28;;;;;;;;;;5046998;28;20036;-79
2022/01/02 14:10:16;;;;;;;12.15;4.53;;;;;;;;;;5048037;28;20033;-79
2022/01/02 14:12:42;;;;;;;8.07;4.30;;;;;;;;;;5040570;28;20128;-79
2022/01/02 14:15:21;;;;;;;7.32;4.22;;;;;;;;;;5040242;28;20123;-78
2022/01/02 14:17:48;;;;;;;9.98;4.20;;;;;;;;;;5040162;28;20112;-79
2022/01/02 14:20:16;;;;;;;7.75;3.83;;;;;;;;;;5042024;28;20414;-79
2022/01/02 14:22:43;;;;;;;8.55;3.83;;;;;;;;;;5040094;28;20029;-79
2022/01/02 14:25:09;;;;;;;10.30;3.83;;;;;;;;;;5049729;28;20037;-78
2022/01/02 14:27:35;;;;;;;6.55;3.78;;;;;;;;;;5050852;28;20507;-76
2022/01/02 14:30:00;;;;;;;11.98;3.78;;;;;;;;;;5050669;28;20032;-75
2022/01/02 14:32:27;;;;;;;8.25;4.05;;;;;;;;;;5035640;28;20106;-77
2022/01/02 14:34:53;;;;;;;11.23;4.05;;;;;;;;;;5031831;28;20048;-77
2022/01/02 14:37:20;;;;;;;10.43;3.97;;;;;;;;;;5035383;28;20489;-78
2022/01/02 14:39:46;;;;;;;10.35;3.75;;;;;;;;;;5039374;28;20048;-78
2022/01/02 14:42:12;;;;;;;9.95;4.72;;;;;;;;;;5044397;28;20045;-77
2022/01/02 14:44:39;;;;;;;10.13;4.40;;;;;;;;;;5038953;28;20079;-77
2022/01/02 14:47:05;;;;;;;14.73;4.60;;;;;;;;;;5052661;28;20126;-77
2022/01/02 14:49:31;;;;;;;8.60;3.83;;;;;;;;;;5050525;28;20110;-77
2022/01/02 14:51:56;;;;;;;13.05;3.80;;;;;;;;;;5065184;28;20044;-76